Etusivu
METAR-TAF:

METAR-TAF

Lentoasemat :

Jönköping, Ruotsi

Leveyspiiri: 57-46N, Pituuspiiri: 014-05E, korkeus merenpinnasta: 226 m

Tämänhetkinen sää

Tämä raportti tehtiin 21 minuuttia sitten, kello 13.20 UTC
Tuuli 7 kn pohjoisesta/koillisesta
Lämpötila 24°C
Kosteus 34%
Ilmanpaine 1029 hPa
Näkyvyys 10 km tai enemmän
ei pilviä alle 1500 m:ssä eikä cumulonimbus-pilviä

METAR: ESGJ 241320Z 03007KT CAVOK 24/07 Q1029

Aika: 15:41 (13:41 UTC)

Sääennuste

Tämä raportti tehtiin 2 tuntia ja 11 minuuttia sitten, kello 11.30 UTC
Ennuste voimassa 24. päivästä klo 12 UTC - 24. päivään klo 21 UTC
Tuuli 7 kn idästä/koillisesta
Näkyvyys 10 km tai enemmän
ei pilviä alle 1500 m:ssä eikä cumulonimbus-pilviä

TAF: ESGJ 241130Z 2412/2421 07007KT CAVOK

Säähavainnot ja -ennusteet yli 4000 lentoasemalta (METAR- ja TAF-raportit).

Käytössä olevat sääasemat on merkitty karttaan keltaisilla ja punaisilla pisteillä.

Aseta hiiri pisteen päälle nähdäksesi sääaseman nimen.

Klikkaa sitten nähdäksesi säähavainnot ja -ennusteet.

Kartan vaihtaminen: klikkaa mustalla rastilla varustettuja vihreitä pisteitä, niin voit zoomata sisään; viivalla varustettua vihreää pistettä, niin voit zoomata ulos tai vihreitä nuolia, niin pääset viereisille kartoille.


METAR-TAF: